createdAt,value
2022-11-04T00:01:46.120Z,8.49
2022-11-04T00:04:17.115Z,8.48
2022-11-04T00:06:44.283Z,8.48
2022-11-04T00:09:15.741Z,8.48
2022-11-04T00:12:00.916Z,8.49
2022-11-04T00:14:31.880Z,8.48
2022-11-04T00:17:20.458Z,8.45
2022-11-04T00:20:08.321Z,8.42
2022-11-04T00:22:54.735Z,8.38
2022-11-04T00:28:35.703Z,8.34
2022-11-04T00:31:22.562Z,8.35
2022-11-04T00:33:56.410Z,8.32
2022-11-04T00:36:26.730Z,8.29
2022-11-04T00:38:53.774Z,8.25
2022-11-04T00:41:26.630Z,8.21
2022-11-04T00:43:54.093Z,8.17
2022-11-04T00:46:20.957Z,8.14
2022-11-04T00:48:48.322Z,8.13
2022-11-04T00:51:15.632Z,8.12
2022-11-04T00:53:42.324Z,8.08
2022-11-04T00:56:11.779Z,8.07
2022-11-04T00:58:38.396Z,8.09
2022-11-04T01:01:13.121Z,8.06
2022-11-04T01:03:40.007Z,8.08
2022-11-04T01:06:06.919Z,8.07
2022-11-04T01:08:36.292Z,8.02
2022-11-04T01:11:07.976Z,7.99
2022-11-04T01:13:35.206Z,7.95
2022-11-04T01:16:03.945Z,7.88
2022-11-04T01:18:30.556Z,7.85
2022-11-04T01:21:04.671Z,7.83
2022-11-04T01:23:35.143Z,7.82
2022-11-04T01:26:01.811Z,7.79
2022-11-04T01:28:28.684Z,7.76
2022-11-04T01:30:55.232Z,7.68
2022-11-04T01:33:21.765Z,7.66
2022-11-04T01:35:48.312Z,7.64
2022-11-04T01:38:14.875Z,7.60
2022-11-04T01:40:41.568Z,7.60
2022-11-04T01:43:18.728Z,7.60
2022-11-04T01:45:52.319Z,7.58
2022-11-04T01:48:31.215Z,7.55
2022-11-04T01:50:59.534Z,7.52
2022-11-04T01:53:34.663Z,7.50
2022-11-04T01:56:11.824Z,7.48
2022-11-04T01:58:48.454Z,7.46
2022-11-04T02:01:15.233Z,7.43
2022-11-04T02:03:51.950Z,7.38
2022-11-04T02:06:22.676Z,7.39
2022-11-04T02:08:49.596Z,7.37
2022-11-04T02:11:36.381Z,7.38
2022-11-04T02:14:03.261Z,7.38
2022-11-04T02:16:40.226Z,7.40
2022-11-04T02:19:34.257Z,7.43
2022-11-04T02:22:16.053Z,7.45
2022-11-04T02:25:11.714Z,7.48
2022-11-04T02:28:02.636Z,7.53
2022-11-04T02:30:38.649Z,7.58
2022-11-04T02:33:32.659Z,7.63
2022-11-04T02:36:30.378Z,7.70
2022-11-04T02:39:35.167Z,7.76
2022-11-04T02:42:13.312Z,7.78
2022-11-04T02:44:53.258Z,7.81
2022-11-04T02:47:24.163Z,7.83
2022-11-04T02:49:53.017Z,7.87
2022-11-04T02:52:27.113Z,7.88
2022-11-04T02:55:00.796Z,7.91
2022-11-04T02:57:31.724Z,7.93
2022-11-04T03:00:06.035Z,7.94
2022-11-04T03:02:52.136Z,7.95
2022-11-04T03:05:25.883Z,7.93
2022-11-04T03:07:56.449Z,7.92
2022-11-04T03:10:34.434Z,7.92
2022-11-04T03:13:11.516Z,7.91
2022-11-04T03:15:42.815Z,7.90
2022-11-04T03:18:34.938Z,7.86
2022-11-04T03:21:04.608Z,7.85
2022-11-04T03:23:32.083Z,7.82
2022-11-04T03:26:11.849Z,7.81
2022-11-04T03:28:50.555Z,7.80
2022-11-04T03:31:39.686Z,7.78
2022-11-04T03:34:06.310Z,7.77
2022-11-04T03:36:32.870Z,7.77
2022-11-04T03:38:59.442Z,7.77
2022-11-04T03:41:34.232Z,7.77
2022-11-04T03:44:00.971Z,7.78
2022-11-04T03:46:28.012Z,7.77
2022-11-04T03:48:55.751Z,7.77
2022-11-04T03:51:22.396Z,7.76
2022-11-04T03:53:49.130Z,7.75
2022-11-04T03:56:25.254Z,7.74
2022-11-04T03:59:12.213Z,7.73
2022-11-04T04:01:47.824Z,7.72
2022-11-04T04:04:39.002Z,7.74
2022-11-04T04:07:50.756Z,7.75
2022-11-04T04:10:40.693Z,7.79
2022-11-04T04:13:20.188Z,7.82
2022-11-04T04:15:52.555Z,7.85
2022-11-04T04:18:27.499Z,7.87
2022-11-04T04:20:57.457Z,7.89
2022-11-04T04:23:48.119Z,7.91
2022-11-04T04:26:34.477Z,7.89
2022-11-04T04:29:03.744Z,7.90
2022-11-04T04:31:51.509Z,7.92
2022-11-04T04:34:27.474Z,7.94
2022-11-04T04:37:19.002Z,7.98
2022-11-04T04:40:09.602Z,8.02
2022-11-04T04:42:55.923Z,8.05
2022-11-04T04:45:38.323Z,8.08
2022-11-04T04:48:05.850Z,8.14
2022-11-04T04:50:40.834Z,8.16
2022-11-04T04:53:07.907Z,8.19
2022-11-04T04:55:39.036Z,8.21
2022-11-04T04:58:09.032Z,8.26
2022-11-04T05:00:35.636Z,8.30
2022-11-04T05:03:02.211Z,8.32
2022-11-04T05:05:29.106Z,8.32
2022-11-04T05:07:55.691Z,8.34
2022-11-04T05:10:22.341Z,8.33
2022-11-04T05:13:27.251Z,8.33
2022-11-04T05:15:53.980Z,8.32
2022-11-04T05:18:20.907Z,8.31
2022-11-04T05:20:47.492Z,8.31
2022-11-04T05:23:14.813Z,8.31
2022-11-04T05:25:41.884Z,8.29
2022-11-04T05:28:09.138Z,8.30
2022-11-04T05:30:36.378Z,8.29
2022-11-04T05:33:04.974Z,8.30
2022-11-04T05:35:32.844Z,8.32
2022-11-04T05:37:59.667Z,8.33
2022-11-04T05:40:26.501Z,8.36
2022-11-04T05:42:53.094Z,8.36
2022-11-04T05:45:19.706Z,8.37
2022-11-04T05:47:46.305Z,8.41
2022-11-04T05:50:12.896Z,8.42
2022-11-04T05:52:39.622Z,8.45
2022-11-04T05:55:06.606Z,8.44
2022-11-04T05:57:33.256Z,8.47
2022-11-04T05:59:59.807Z,8.49
2022-11-04T06:02:26.502Z,8.51
2022-11-04T06:04:53.159Z,8.53
2022-11-04T06:07:19.724Z,8.56
2022-11-04T06:09:46.296Z,8.57
2022-11-04T06:12:15.168Z,8.59
2022-11-04T06:14:42.581Z,8.60
2022-11-04T06:17:14.365Z,8.63
2022-11-04T06:19:40.931Z,8.63
2022-11-04T06:22:08.443Z,8.64
2022-11-04T06:24:35.032Z,8.66
2022-11-04T06:27:01.588Z,8.64
2022-11-04T06:29:28.214Z,8.67
2022-11-04T06:31:54.898Z,8.65
2022-11-04T06:34:21.490Z,8.64
2022-11-04T06:36:49.611Z,8.62
2022-11-04T06:39:16.504Z,8.59
2022-11-04T06:41:43.435Z,8.57
2022-11-04T06:44:10.762Z,8.54
2022-11-04T06:46:39.911Z,8.52
2022-11-04T06:49:09.744Z,8.50
2022-11-04T06:51:36.367Z,8.49
2022-11-04T06:54:03.470Z,8.48
2022-11-04T06:56:30.276Z,8.47
2022-11-04T06:58:57.228Z,8.46
2022-11-04T07:01:27.804Z,8.44
2022-11-04T07:03:56.617Z,8.45
2022-11-04T07:06:23.435Z,8.43
2022-11-04T07:08:51.333Z,8.41
2022-11-04T07:11:21.223Z,8.41
2022-11-04T07:13:49.083Z,8.38
2022-11-04T07:16:16.453Z,8.39
2022-11-04T07:18:43.140Z,8.36
2022-11-04T07:21:10.547Z,8.38
2022-11-04T07:23:37.527Z,8.37
2022-11-04T07:26:07.152Z,8.39
2022-11-04T07:28:34.251Z,8.37
2022-11-04T07:31:02.079Z,8.39
2022-11-04T07:33:29.506Z,8.38
2022-11-04T07:35:58.247Z,8.41
2022-11-04T07:38:25.134Z,8.42
2022-11-04T07:40:51.719Z,8.43
2022-11-04T07:43:18.532Z,8.47
2022-11-04T07:45:45.126Z,8.50
2022-11-04T07:48:12.522Z,8.52
2022-11-04T07:50:40.643Z,8.54
2022-11-04T07:53:07.806Z,8.58
2022-11-04T07:55:42.065Z,8.62
2022-11-04T07:58:10.229Z,8.66
2022-11-04T08:00:36.772Z,8.70
2022-11-04T08:03:03.553Z,8.73
2022-11-04T08:05:30.192Z,8.77
2022-11-04T08:07:57.714Z,8.80
2022-11-04T08:10:24.466Z,8.85
2022-11-04T08:12:52.301Z,8.89
2022-11-04T08:15:18.895Z,8.94
2022-11-04T08:17:45.499Z,8.99
2022-11-04T08:20:12.416Z,9.07
2022-11-04T08:22:39.195Z,9.13
2022-11-04T08:25:06.379Z,9.17
2022-11-04T08:27:34.363Z,9.23
2022-11-04T08:30:00.917Z,9.24
2022-11-04T08:32:27.483Z,9.27
2022-11-04T08:34:54.039Z,9.29
2022-11-04T08:37:20.639Z,9.31
2022-11-04T08:39:47.260Z,9.36
2022-11-04T08:42:13.911Z,9.39
2022-11-04T08:44:40.616Z,9.42
2022-11-04T08:47:07.199Z,9.46
2022-11-04T08:49:50.750Z,9.46
2022-11-04T08:52:18.015Z,9.55
2022-11-04T08:54:47.710Z,9.59
2022-11-04T08:57:14.370Z,9.66
2022-11-04T08:59:41.274Z,9.68
2022-11-04T09:02:13.874Z,9.72
2022-11-04T09:04:40.519Z,9.78
2022-11-04T09:07:08.390Z,9.83
2022-11-04T09:09:35.406Z,9.88
2022-11-04T09:12:01.970Z,9.92
2022-11-04T09:14:29.048Z,9.99
2022-11-04T09:16:56.152Z,10.05
2022-11-04T09:19:23.944Z,10.08
2022-11-04T09:21:50.885Z,10.12
2022-11-04T09:24:17.640Z,10.13
2022-11-04T09:26:44.785Z,10.18
2022-11-04T09:29:11.428Z,10.21
2022-11-04T09:31:38.464Z,10.23
2022-11-04T09:34:05.040Z,10.28
2022-11-04T09:36:31.674Z,10.30
2022-11-04T09:38:58.309Z,10.34
2022-11-04T09:41:55.792Z,10.37
2022-11-04T09:44:31.503Z,10.40
2022-11-04T09:47:02.267Z,10.43
2022-11-04T09:49:42.448Z,10.44
2022-11-04T09:52:18.841Z,10.50
2022-11-04T09:55:02.867Z,10.53
2022-11-04T09:57:29.707Z,10.54
2022-11-04T09:59:58.064Z,10.56
2022-11-04T10:02:55.589Z,10.57
2022-11-04T10:05:40.548Z,10.58
2022-11-04T10:08:16.735Z,10.58
2022-11-04T10:11:11.506Z,10.56
2022-11-04T10:14:02.864Z,10.55
2022-11-04T10:16:56.628Z,10.54
2022-11-04T10:19:48.393Z,10.52
2022-11-04T10:22:14.947Z,10.52
2022-11-04T10:25:01.307Z,10.52
2022-11-04T10:27:33.379Z,10.51
2022-11-04T10:30:25.757Z,10.52
2022-11-04T10:33:13.947Z,10.53
2022-11-04T10:35:57.231Z,10.55
2022-11-04T10:38:48.729Z,10.59
2022-11-04T10:41:24.562Z,10.60
2022-11-04T10:43:54.492Z,10.61
2022-11-04T10:46:26.699Z,10.61
2022-11-04T10:48:59.352Z,10.61
2022-11-04T10:51:26.216Z,10.60
2022-11-04T10:53:59.004Z,10.58
2022-11-04T10:56:34.738Z,10.58
2022-11-04T10:59:28.795Z,10.57
2022-11-04T11:01:57.930Z,10.57
2022-11-04T11:04:28.084Z,10.55
2022-11-04T11:06:56.951Z,10.52
2022-11-04T11:09:35.893Z,10.50
2022-11-04T11:12:29.480Z,10.51
2022-11-04T11:14:53.652Z,10.49
2022-11-04T11:17:38.385Z,10.50
2022-11-04T11:20:37.765Z,10.51
2022-11-04T11:23:09.889Z,10.51
2022-11-04T11:25:45.302Z,10.49
2022-11-04T11:28:21.475Z,10.49
2022-11-04T11:30:48.157Z,10.47
2022-11-04T11:33:14.694Z,10.46
2022-11-04T11:35:45.437Z,10.47
2022-11-04T11:38:22.496Z,10.46
2022-11-04T11:41:18.767Z,10.48
2022-11-04T11:43:44.443Z,10.50
2022-11-04T11:46:13.067Z,10.51
2022-11-04T11:48:42.907Z,10.52
2022-11-04T11:51:15.131Z,10.52
2022-11-04T11:54:02.863Z,10.52
2022-11-04T11:56:59.139Z,10.54
2022-11-04T12:02:41.664Z,10.55
2022-11-04T12:11:20.090Z,10.56
2022-11-04T12:13:55.993Z,10.55
2022-11-04T12:16:58.753Z,10.55
2022-11-04T12:20:14.957Z,10.55
2022-11-04T12:23:04.898Z,10.53
2022-11-04T12:25:49.507Z,10.52
2022-11-04T12:28:53.774Z,10.51
2022-11-04T12:31:32.295Z,10.51
2022-11-04T12:34:34.391Z,10.50
2022-11-04T12:37:13.200Z,10.48
2022-11-04T12:39:39.742Z,10.47
2022-11-04T12:42:33.226Z,10.47
2022-11-04T12:45:29.189Z,10.46
2022-11-04T12:48:03.883Z,10.46
2022-11-04T12:50:36.739Z,10.46
2022-11-04T12:53:30.157Z,10.44
2022-11-04T12:56:17.711Z,10.43
2022-11-04T12:59:07.111Z,10.44
2022-11-04T13:01:48.470Z,10.43
2022-11-04T13:04:30.124Z,10.42
2022-11-04T13:07:10.242Z,10.43
2022-11-04T13:09:45.721Z,10.42
2022-11-04T13:12:17.036Z,10.43
2022-11-04T13:15:04.531Z,10.43
2022-11-04T13:17:35.688Z,10.43
2022-11-04T13:20:14.492Z,10.42
2022-11-04T13:22:48.361Z,10.44
2022-11-04T13:25:20.742Z,10.45
2022-11-04T13:27:48.319Z,10.44
2022-11-04T13:30:17.570Z,10.44
2022-11-04T13:32:50.356Z,10.46
2022-11-04T13:35:17.815Z,10.44
2022-11-04T13:37:58.816Z,10.44
2022-11-04T13:40:46.534Z,10.43
2022-11-04T13:43:37.992Z,10.41
2022-11-04T13:46:17.802Z,10.40
2022-11-04T13:49:00.147Z,10.36
2022-11-04T13:51:38.879Z,10.37
2022-11-04T13:54:07.743Z,10.34
2022-11-04T13:56:37.747Z,10.29
2022-11-04T13:59:26.663Z,10.28
2022-11-04T14:02:11.701Z,10.25
2022-11-04T14:04:43.290Z,10.21
2022-11-04T14:07:12.652Z,10.19
2022-11-04T14:09:42.246Z,10.16
2022-11-04T14:12:11.601Z,10.14
2022-11-04T14:14:40.156Z,10.09
2022-11-04T14:17:34.827Z,10.07
2022-11-04T14:20:31.390Z,10.02
2022-11-04T14:23:03.727Z,9.99
2022-11-04T14:25:44.416Z,9.95
2022-11-04T14:28:11.036Z,9.92
2022-11-04T14:30:46.763Z,9.89
2022-11-04T14:33:29.866Z,9.87
2022-11-04T14:36:13.489Z,9.84
2022-11-04T14:38:41.445Z,9.81
2022-11-04T14:41:23.057Z,9.80
2022-11-04T14:43:50.765Z,9.76
2022-11-04T14:46:27.751Z,9.75
2022-11-04T14:48:56.999Z,9.72
2022-11-04T14:51:33.836Z,9.70
2022-11-04T14:54:06.920Z,9.70
2022-11-04T14:56:33.767Z,9.68
2022-11-04T14:59:05.459Z,9.67
2022-11-04T15:01:38.148Z,9.64
2022-11-04T15:04:26.992Z,9.62
2022-11-04T15:07:04.703Z,9.60
2022-11-04T15:09:39.631Z,9.57
2022-11-04T15:12:27.863Z,9.55
2022-11-04T15:14:55.116Z,9.53
2022-11-04T15:17:24.448Z,9.51
2022-11-04T15:19:53.240Z,9.48
2022-11-04T15:22:20.454Z,9.47
2022-11-04T15:24:47.194Z,9.45
2022-11-04T15:27:17.396Z,9.45
2022-11-04T15:29:59.238Z,9.45
2022-11-04T15:32:26.690Z,9.43
2022-11-04T15:34:55.489Z,9.43
2022-11-04T15:37:25.207Z,9.42
2022-11-04T15:39:55.572Z,9.39
2022-11-04T15:42:40.428Z,9.40
2022-11-04T15:45:24.952Z,9.39
2022-11-04T15:48:23.551Z,9.39
2022-11-04T15:51:19.374Z,9.38
2022-11-04T15:53:54.820Z,9.36
2022-11-04T15:56:31.585Z,9.33
2022-11-04T15:59:00.417Z,9.32
2022-11-04T16:01:29.188Z,9.33
2022-11-04T16:03:58.878Z,9.31
2022-11-04T16:06:39.923Z,9.28
2022-11-04T16:09:09.406Z,9.28
2022-11-04T16:11:36.061Z,9.25
2022-11-04T16:14:25.198Z,9.24
2022-11-04T16:16:53.159Z,9.23
2022-11-04T16:19:25.958Z,9.22
2022-11-04T16:22:09.706Z,9.21
2022-11-04T16:24:39.350Z,9.20
2022-11-04T16:27:19.012Z,9.18
2022-11-04T16:29:56.928Z,9.17
2022-11-04T16:32:42.042Z,9.16
2022-11-04T16:35:28.098Z,9.12
2022-11-04T16:37:58.504Z,9.11
2022-11-04T16:40:25.656Z,9.11
2022-11-04T16:42:53.523Z,9.10
2022-11-04T16:45:26.145Z,9.10
2022-11-04T16:47:53.675Z,9.08
2022-11-04T16:50:21.038Z,9.08
2022-11-04T16:52:48.043Z,9.07
2022-11-04T16:55:15.652Z,9.05
2022-11-04T16:57:42.557Z,9.04
2022-11-04T17:00:16.703Z,9.00
2022-11-04T17:02:43.293Z,9.00
2022-11-04T17:05:10.544Z,8.99
2022-11-04T17:07:52.801Z,8.99
2022-11-04T17:10:27.354Z,9.01
2022-11-04T17:12:54.283Z,8.98
2022-11-04T17:15:20.881Z,8.99
2022-11-04T17:17:47.483Z,8.98
2022-11-04T17:20:17.815Z,8.98
2022-11-04T17:22:46.740Z,8.97
2022-11-04T17:25:20.465Z,8.95
2022-11-04T17:27:47.515Z,8.94
2022-11-04T17:30:14.486Z,8.94
2022-11-04T17:32:41.948Z,8.95
2022-11-04T17:35:09.406Z,8.95
2022-11-04T17:37:36.040Z,8.95
2022-11-04T17:40:02.970Z,8.95
2022-11-04T17:42:48.148Z,8.94
2022-11-04T17:45:14.754Z,8.93
2022-11-04T17:47:41.454Z,8.93
2022-11-04T17:50:08.790Z,8.92
2022-11-04T17:52:36.633Z,8.91
2022-11-04T17:55:05.259Z,8.90
2022-11-04T17:57:36.100Z,8.90
2022-11-04T18:00:05.736Z,8.90
2022-11-04T18:02:32.965Z,8.89
2022-11-04T18:05:01.768Z,8.89
2022-11-04T18:07:29.163Z,8.88
2022-11-04T18:09:56.615Z,8.86
2022-11-04T18:12:38.928Z,8.85
2022-11-04T18:15:08.774Z,8.85
2022-11-04T18:17:39.791Z,8.83
2022-11-04T18:20:13.997Z,8.81
2022-11-04T18:22:41.667Z,8.80
2022-11-04T18:25:09.165Z,8.79
2022-11-04T18:27:36.207Z,8.77
2022-11-04T18:30:02.939Z,8.77
2022-11-04T18:32:29.519Z,8.78
2022-11-04T18:34:56.108Z,8.78
2022-11-04T18:37:23.249Z,8.79
2022-11-04T18:39:49.880Z,8.81
2022-11-04T18:42:16.449Z,8.83
2022-11-04T18:44:43.123Z,8.83
2022-11-04T18:47:09.731Z,8.85
2022-11-04T18:49:36.344Z,8.87
2022-11-04T18:52:03.064Z,8.88
2022-11-04T18:54:29.605Z,8.88
2022-11-04T18:56:56.182Z,8.88
2022-11-04T18:59:22.927Z,8.86
2022-11-04T19:01:51.719Z,8.89
2022-11-04T19:04:18.631Z,8.92
2022-11-04T19:06:45.557Z,8.93
2022-11-04T19:12:20.472Z,9.01
2022-11-04T19:14:47.229Z,9.04
2022-11-04T19:17:13.976Z,9.04
2022-11-04T19:19:41.287Z,9.06
2022-11-04T19:22:08.384Z,9.07
2022-11-04T19:24:35.065Z,9.06
2022-11-04T19:27:01.670Z,9.07
2022-11-04T19:29:29.557Z,9.10
2022-11-04T19:31:59.360Z,9.11
2022-11-04T19:34:26.112Z,9.12
2022-11-04T19:36:52.978Z,9.12
2022-11-04T19:39:19.539Z,9.13
2022-11-04T19:42:04.808Z,9.13
2022-11-04T19:44:32.244Z,9.13
2022-11-04T19:46:58.941Z,9.14
2022-11-04T19:49:25.631Z,9.15
2022-11-04T19:51:52.177Z,9.16
2022-11-04T19:54:19.212Z,9.16
2022-11-04T19:56:45.856Z,9.14
2022-11-04T19:59:12.597Z,9.14
2022-11-04T20:01:41.883Z,9.14
2022-11-04T20:04:09.422Z,9.11
2022-11-04T20:06:38.913Z,9.10
2022-11-04T20:09:08.144Z,9.11
2022-11-04T20:11:35.569Z,9.09
2022-11-04T20:14:07.853Z,9.07
2022-11-04T20:16:39.526Z,9.04
2022-11-04T20:19:09.452Z,9.05
2022-11-04T20:21:37.209Z,9.05
2022-11-04T20:24:10.143Z,9.05
2022-11-04T20:26:38.130Z,9.07
2022-11-04T20:29:11.836Z,9.06
2022-11-04T20:32:01.640Z,9.07
2022-11-04T20:34:32.895Z,9.05
2022-11-04T20:37:00.508Z,9.04
2022-11-04T20:39:27.099Z,9.05
2022-11-04T20:41:53.768Z,9.05
2022-11-04T20:44:20.470Z,9.05
2022-11-04T20:46:49.034Z,9.05
2022-11-04T20:49:15.607Z,9.06
2022-11-04T20:51:55.180Z,9.06
2022-11-04T20:54:22.400Z,9.06
2022-11-04T20:56:49.105Z,9.05
2022-11-04T20:59:16.724Z,9.04
2022-11-04T21:01:46.456Z,9.05
2022-11-04T21:04:19.001Z,9.03
2022-11-04T21:06:47.715Z,9.02
2022-11-04T21:09:16.034Z,9.02
2022-11-04T21:11:42.967Z,9.01
2022-11-04T21:14:12.747Z,9.01
2022-11-04T21:16:40.260Z,9.04
2022-11-04T21:19:08.068Z,9.06
2022-11-04T21:21:35.276Z,9.07
2022-11-04T21:24:05.025Z,9.11
2022-11-04T21:26:34.346Z,9.13
2022-11-04T21:29:03.934Z,9.16
2022-11-04T21:31:32.444Z,9.17
2022-11-04T21:34:00.226Z,9.21
2022-11-04T21:36:28.608Z,9.20
2022-11-04T21:38:55.833Z,9.21
2022-11-04T21:41:25.380Z,9.21
2022-11-04T21:43:56.855Z,9.19
2022-11-04T21:46:24.382Z,9.18
2022-11-04T21:48:50.976Z,9.18
2022-11-04T21:51:20.598Z,9.21
2022-11-04T21:53:47.181Z,9.22
2022-11-04T21:56:16.508Z,9.22
2022-11-04T21:58:44.208Z,9.22
2022-11-04T22:01:13.586Z,9.24
2022-11-04T22:03:40.774Z,9.25
2022-11-04T22:06:12.864Z,9.28
2022-11-04T22:08:43.240Z,9.28
2022-11-04T22:11:12.435Z,9.29
2022-11-04T22:13:39.092Z,9.29
2022-11-04T22:16:20.710Z,9.32
2022-11-04T22:18:47.625Z,9.33
2022-11-04T22:21:17.356Z,9.32
2022-11-04T22:23:44.980Z,9.31
2022-11-04T22:26:15.345Z,9.32
2022-11-04T22:28:42.193Z,9.31
2022-11-04T22:31:13.674Z,9.31
2022-11-04T22:33:40.621Z,9.30
2022-11-04T22:36:07.734Z,9.32
2022-11-04T22:38:36.114Z,9.32
2022-11-04T22:41:06.194Z,9.32
2022-11-04T22:43:35.296Z,9.33
2022-11-04T22:46:27.729Z,9.34
2022-11-04T22:48:54.611Z,9.34
2022-11-04T22:51:23.390Z,9.37
2022-11-04T22:53:57.707Z,9.36
2022-11-04T22:56:25.736Z,9.37
2022-11-04T22:58:54.241Z,9.37
2022-11-04T23:01:21.499Z,9.37
2022-11-04T23:03:53.080Z,9.34
2022-11-04T23:06:19.969Z,9.34
2022-11-04T23:08:47.400Z,9.34
2022-11-04T23:11:45.704Z,9.33
2022-11-04T23:14:36.424Z,9.35
2022-11-04T23:17:29.063Z,9.34
2022-11-04T23:19:55.652Z,9.35
2022-11-04T23:22:40.560Z,9.36
2022-11-04T23:25:09.876Z,9.37
2022-11-04T23:28:08.846Z,9.38
2022-11-04T23:30:38.457Z,9.40
2022-11-04T23:33:42.749Z,9.40
2022-11-04T23:36:27.837Z,9.43
2022-11-04T23:38:54.864Z,9.44
2022-11-04T23:41:43.181Z,9.46
2022-11-04T23:44:32.411Z,9.46
2022-11-04T23:47:20.377Z,9.46
2022-11-04T23:50:08.341Z,9.46
2022-11-04T23:52:56.785Z,9.46
2022-11-04T23:55:41.755Z,9.45
2022-11-04T23:58:27.669Z,9.46
